createdAt,value
2022-12-31T00:00:25.063Z,0.30
2022-12-31T00:02:52.934Z,0.30
2022-12-31T00:05:22.537Z,0.70
2022-12-31T00:07:50.423Z,0.50
2022-12-31T00:10:18.452Z,0.50
2022-12-31T00:12:46.397Z,0.40
2022-12-31T00:15:14.949Z,0.50
2022-12-31T00:17:42.879Z,0.80
2022-12-31T00:20:11.467Z,0.50
2022-12-31T00:22:40.652Z,0.50
2022-12-31T00:25:09.609Z,0.60
2022-12-31T00:27:37.533Z,0.63
2022-12-31T00:30:06.008Z,0.57
2022-12-31T00:32:33.844Z,0.60
2022-12-31T00:35:01.708Z,0.50
2022-12-31T00:37:29.561Z,0.50
2022-12-31T00:39:58.996Z,0.50
2022-12-31T00:42:26.827Z,0.43
2022-12-31T00:44:54.636Z,0.50
2022-12-31T00:47:24.600Z,0.50
2022-12-31T00:49:52.421Z,0.40
2022-12-31T00:52:34.486Z,0.50
2022-12-31T00:55:03.692Z,0.60
2022-12-31T00:57:31.513Z,1.37
2022-12-31T00:59:59.339Z,1.10
2022-12-31T01:02:27.350Z,0.53
2022-12-31T01:04:55.481Z,0.40
2022-12-31T01:07:23.389Z,0.33
2022-12-31T01:09:51.216Z,0.53
2022-12-31T01:12:20.431Z,0.43
2022-12-31T01:14:48.297Z,0.80
2022-12-31T01:17:17.268Z,1.03
2022-12-31T01:19:45.092Z,0.47
2022-12-31T01:22:12.909Z,0.40
2022-12-31T01:24:40.843Z,0.57
2022-12-31T01:27:08.660Z,0.50
2022-12-31T01:29:37.872Z,0.40
2022-12-31T01:32:06.245Z,0.30
2022-12-31T01:34:34.148Z,0.30
2022-12-31T01:37:01.998Z,0.60
2022-12-31T01:39:29.894Z,0.50
2022-12-31T01:41:57.789Z,0.30
2022-12-31T01:44:49.350Z,0.40
2022-12-31T01:47:21.297Z,0.40
2022-12-31T01:49:53.381Z,0.67
2022-12-31T01:52:26.092Z,0.60
2022-12-31T01:55:01.534Z,0.50
2022-12-31T01:57:29.770Z,0.60
2022-12-31T02:00:01.621Z,0.67
2022-12-31T02:02:32.844Z,0.50
2022-12-31T02:05:03.845Z,0.50
2022-12-31T02:07:32.276Z,0.30
2022-12-31T02:10:00.957Z,0.60
2022-12-31T02:12:28.792Z,0.70
2022-12-31T02:14:57.514Z,0.53
2022-12-31T02:17:33.909Z,0.60
2022-12-31T02:20:35.326Z,0.57
2022-12-31T02:23:20.482Z,0.50
2022-12-31T02:26:09.577Z,0.60
2022-12-31T02:28:56.442Z,0.40
2022-12-31T02:31:32.879Z,0.40
2022-12-31T02:34:08.185Z,0.57
2022-12-31T02:36:41.104Z,0.60
2022-12-31T02:39:10.873Z,0.60
2022-12-31T02:41:53.930Z,0.67
2022-12-31T02:44:24.487Z,0.43
2022-12-31T02:47:02.781Z,0.57
2022-12-31T02:49:41.752Z,0.50
2022-12-31T02:52:16.799Z,0.70
2022-12-31T02:54:52.384Z,0.60
2022-12-31T02:57:27.370Z,0.70
2022-12-31T03:00:17.574Z,0.53
2022-12-31T03:02:47.939Z,0.67
2022-12-31T03:05:18.329Z,0.93
2022-12-31T03:07:46.727Z,0.60
2022-12-31T03:10:14.722Z,0.40
2022-12-31T03:12:47.098Z,0.40
2022-12-31T03:15:20.975Z,0.50
2022-12-31T03:17:57.670Z,0.50
2022-12-31T03:20:45.876Z,0.40
2022-12-31T03:23:16.690Z,0.60
2022-12-31T03:25:43.952Z,0.60
2022-12-31T03:28:15.736Z,0.30
2022-12-31T03:30:46.211Z,0.60
2022-12-31T03:33:15.857Z,0.57
2022-12-31T03:35:46.177Z,0.37
2022-12-31T03:38:14.713Z,0.60
2022-12-31T03:40:45.630Z,0.40
2022-12-31T03:43:13.618Z,0.50
2022-12-31T03:45:41.882Z,0.50
2022-12-31T03:48:11.124Z,0.47
2022-12-31T03:50:40.451Z,0.37
2022-12-31T03:53:08.343Z,0.50
2022-12-31T03:55:36.146Z,0.50
2022-12-31T03:58:04.068Z,0.43
2022-12-31T04:00:32.031Z,0.50
2022-12-31T04:03:00.190Z,0.50
2022-12-31T04:05:28.017Z,0.50
2022-12-31T04:07:57.167Z,0.43
2022-12-31T04:10:25.013Z,0.40
2022-12-31T04:12:52.937Z,0.40
2022-12-31T04:15:22.619Z,0.50
2022-12-31T04:17:50.555Z,0.60
2022-12-31T04:20:18.579Z,1.17
2022-12-31T04:22:46.417Z,0.50
2022-12-31T04:25:15.691Z,0.47
2022-12-31T04:27:45.222Z,0.30
2022-12-31T04:30:13.903Z,0.50
2022-12-31T04:32:42.570Z,0.40
2022-12-31T04:35:11.539Z,0.40
2022-12-31T04:37:39.492Z,0.47
2022-12-31T04:40:08.849Z,0.43
2022-12-31T04:42:38.670Z,0.47
2022-12-31T04:45:07.694Z,0.50
2022-12-31T04:47:35.535Z,0.30
2022-12-31T04:50:05.183Z,0.40
2022-12-31T04:52:37.161Z,0.40
2022-12-31T04:55:10.413Z,0.40
2022-12-31T04:57:39.684Z,0.50
2022-12-31T05:00:09.016Z,0.43
2022-12-31T05:02:37.085Z,0.50
2022-12-31T05:05:05.527Z,0.20
2022-12-31T05:07:33.412Z,0.30
2022-12-31T05:10:01.226Z,0.43
2022-12-31T05:12:29.061Z,0.33
2022-12-31T05:14:58.271Z,0.33
2022-12-31T05:17:26.246Z,0.27
2022-12-31T05:19:54.067Z,0.40
2022-12-31T05:22:30.644Z,0.30
2022-12-31T05:24:59.137Z,0.37
2022-12-31T05:27:27.984Z,0.40
2022-12-31T05:29:55.902Z,0.40
2022-12-31T05:32:25.122Z,0.50
2022-12-31T05:34:53.607Z,0.43
2022-12-31T05:37:21.426Z,0.50
2022-12-31T05:39:49.339Z,0.30
2022-12-31T05:42:17.192Z,0.70
2022-12-31T05:44:45.025Z,0.50
2022-12-31T05:47:12.851Z,0.40
2022-12-31T05:49:42.123Z,0.40
2022-12-31T05:52:10.245Z,0.33
2022-12-31T05:54:38.350Z,0.50
2022-12-31T05:57:07.340Z,0.40
2022-12-31T05:59:35.601Z,0.50
2022-12-31T06:02:03.538Z,0.43
2022-12-31T06:04:31.398Z,0.30
2022-12-31T06:07:00.595Z,0.50
2022-12-31T06:09:28.461Z,0.40
2022-12-31T06:11:56.290Z,0.40
2022-12-31T06:14:24.395Z,0.40
2022-12-31T06:16:52.222Z,0.50
2022-12-31T06:19:20.109Z,0.37
2022-12-31T06:21:48.129Z,0.67
2022-12-31T06:24:17.331Z,0.70
2022-12-31T06:26:45.159Z,0.57
2022-12-31T06:29:12.980Z,0.20
2022-12-31T06:31:40.824Z,0.40
2022-12-31T06:34:08.686Z,0.37
2022-12-31T06:36:36.572Z,0.50
2022-12-31T06:39:04.934Z,0.47
2022-12-31T06:41:34.205Z,0.40
2022-12-31T06:44:02.445Z,0.50
2022-12-31T06:46:30.614Z,0.50
2022-12-31T06:48:59.010Z,0.43
2022-12-31T06:51:27.197Z,0.40
2022-12-31T06:53:55.071Z,0.40
2022-12-31T06:56:33.116Z,0.60
2022-12-31T06:59:04.967Z,0.50
2022-12-31T07:01:50.360Z,0.53
2022-12-31T07:04:53.921Z,0.70
2022-12-31T07:07:30.452Z,0.60
2022-12-31T07:10:04.810Z,0.70
2022-12-31T07:12:45.274Z,0.40
2022-12-31T07:15:20.857Z,0.40
2022-12-31T07:17:59.418Z,0.30
2022-12-31T07:20:27.835Z,0.60
2022-12-31T07:22:56.290Z,0.50
2022-12-31T07:25:26.269Z,1.70
2022-12-31T07:28:14.792Z,0.83
2022-12-31T07:30:51.982Z,0.30
2022-12-31T07:33:34.418Z,0.70
2022-12-31T07:36:15.070Z,0.50
2022-12-31T07:38:54.185Z,0.40
2022-12-31T07:41:35.609Z,0.50
2022-12-31T07:44:10.661Z,1.20
2022-12-31T07:46:48.068Z,0.57
2022-12-31T07:49:16.500Z,0.50
2022-12-31T07:51:45.121Z,0.60
2022-12-31T07:54:14.419Z,0.40
2022-12-31T07:56:42.919Z,1.17
2022-12-31T07:59:24.704Z,0.50
2022-12-31T08:02:04.038Z,0.40
2022-12-31T08:04:42.223Z,0.40
2022-12-31T08:07:20.129Z,0.50
2022-12-31T08:09:58.177Z,0.50
2022-12-31T08:12:28.670Z,0.60
2022-12-31T08:14:56.850Z,0.73
2022-12-31T08:17:26.793Z,0.30
2022-12-31T08:19:55.301Z,0.50
2022-12-31T08:22:39.263Z,0.80
2022-12-31T08:25:17.646Z,0.53
2022-12-31T08:27:58.063Z,0.63
2022-12-31T08:30:36.982Z,0.70
2022-12-31T08:33:14.481Z,0.70
2022-12-31T08:36:01.865Z,0.60
2022-12-31T08:38:38.686Z,1.80
2022-12-31T08:41:16.990Z,0.80
2022-12-31T08:43:52.583Z,0.83
2022-12-31T08:46:24.409Z,1.13
2022-12-31T08:48:53.965Z,0.93
2022-12-31T08:51:24.233Z,1.30
2022-12-31T08:53:53.145Z,0.87
2022-12-31T08:56:28.682Z,1.50
2022-12-31T08:59:09.467Z,2.17
2022-12-31T09:01:50.967Z,1.23
2022-12-31T09:04:26.855Z,2.03
2022-12-31T09:07:00.629Z,1.93
2022-12-31T09:09:38.354Z,1.37
2022-12-31T09:12:15.445Z,0.90
2022-12-31T09:14:47.412Z,1.67
2022-12-31T09:17:38.596Z,3.20
2022-12-31T09:20:16.228Z,1.80
2022-12-31T09:22:44.772Z,0.93
2022-12-31T09:25:17.612Z,0.90
2022-12-31T09:27:54.797Z,1.37
2022-12-31T09:30:22.965Z,8.07
2022-12-31T09:33:01.397Z,3.10
2022-12-31T09:35:38.188Z,5.47
2022-12-31T09:38:12.320Z,2.13
2022-12-31T09:41:07.470Z,5.67
2022-12-31T09:44:05.891Z,2.17
2022-12-31T09:47:16.322Z,1.20
2022-12-31T09:50:19.993Z,3.00
2022-12-31T09:53:05.166Z,3.80
2022-12-31T09:55:38.458Z,4.43
2022-12-31T09:58:21.534Z,3.87
2022-12-31T10:00:54.462Z,4.53
2022-12-31T10:03:43.651Z,1.57
2022-12-31T10:06:21.079Z,5.50
2022-12-31T10:09:22.390Z,2.67
2022-12-31T10:12:26.407Z,5.90
2022-12-31T10:15:19.961Z,7.17
2022-12-31T10:18:02.384Z,5.37
2022-12-31T10:20:43.352Z,1.20
2022-12-31T10:23:31.350Z,1.00
2022-12-31T10:26:25.924Z,1.43
2022-12-31T10:28:56.972Z,1.80
2022-12-31T10:31:39.178Z,1.50
2022-12-31T10:34:16.187Z,1.30
2022-12-31T10:36:56.529Z,1.63
2022-12-31T10:39:36.593Z,0.50
2022-12-31T10:42:41.726Z,1.27
2022-12-31T10:45:42.219Z,1.27
2022-12-31T10:48:48.979Z,1.83
2022-12-31T10:51:43.838Z,0.90
2022-12-31T10:55:02.580Z,5.40
2022-12-31T10:58:10.791Z,7.87
2022-12-31T11:00:47.469Z,5.10
2022-12-31T11:03:50.389Z,8.27
2022-12-31T11:07:04.376Z,5.57
2022-12-31T11:09:57.088Z,4.67
2022-12-31T11:12:51.001Z,0.40
2022-12-31T11:15:39.788Z,0.40
2022-12-31T11:18:18.186Z,1.00
2022-12-31T11:21:04.387Z,0.60
2022-12-31T11:23:44.505Z,0.50
2022-12-31T11:26:22.348Z,0.40
2022-12-31T11:29:12.222Z,0.37
2022-12-31T11:31:58.064Z,0.37
2022-12-31T11:34:52.158Z,1.70
2022-12-31T11:37:32.274Z,0.70
2022-12-31T11:40:16.839Z,0.80
2022-12-31T11:42:53.115Z,0.40
2022-12-31T11:45:37.389Z,1.10
2022-12-31T11:48:31.264Z,3.87
2022-12-31T11:51:22.679Z,0.80
2022-12-31T11:54:15.982Z,2.73
2022-12-31T11:56:51.422Z,0.90
2022-12-31T11:59:19.947Z,0.97
2022-12-31T12:01:56.977Z,1.10
2022-12-31T12:04:25.039Z,0.97
2022-12-31T12:06:53.446Z,1.23
2022-12-31T12:09:27.853Z,0.83
2022-12-31T12:12:02.463Z,1.57
2022-12-31T12:14:35.278Z,1.03
2022-12-31T12:17:05.464Z,0.80
2022-12-31T12:19:36.597Z,4.20
2022-12-31T12:22:12.326Z,0.83
2022-12-31T12:24:40.111Z,0.70
2022-12-31T12:27:22.214Z,0.70
2022-12-31T12:29:50.085Z,1.40
2022-12-31T12:32:20.056Z,0.80
2022-12-31T12:34:50.161Z,0.60
2022-12-31T12:37:27.796Z,0.70
2022-12-31T12:40:01.553Z,0.50
2022-12-31T12:42:31.057Z,0.50
2022-12-31T12:45:03.342Z,0.60
2022-12-31T12:47:32.266Z,0.40
2022-12-31T12:50:00.941Z,0.40
2022-12-31T12:52:57.838Z,0.30
2022-12-31T12:55:41.818Z,2.20
2022-12-31T12:58:26.856Z,0.27
2022-12-31T13:01:03.998Z,0.20
2022-12-31T13:06:59.649Z,0.20
2022-12-31T13:09:42.676Z,0.30
2022-12-31T13:12:18.063Z,0.30
2022-12-31T13:14:54.429Z,0.30
2022-12-31T13:17:35.045Z,0.30
2022-12-31T13:20:08.167Z,0.30
2022-12-31T13:22:41.069Z,0.40
2022-12-31T13:25:22.938Z,0.53
2022-12-31T13:27:54.991Z,0.20
2022-12-31T13:30:27.089Z,0.40
2022-12-31T13:33:02.759Z,0.30
2022-12-31T13:35:34.975Z,0.30
2022-12-31T13:38:06.511Z,0.40
2022-12-31T13:40:45.783Z,0.20
2022-12-31T13:43:19.718Z,0.30
2022-12-31T13:45:58.440Z,0.40
2022-12-31T13:48:33.761Z,1.47
2022-12-31T13:51:06.901Z,0.83
2022-12-31T13:53:39.561Z,7.37
2022-12-31T13:56:14.450Z,2.73
2022-12-31T13:58:48.310Z,1.00
2022-12-31T14:01:23.020Z,0.80
2022-12-31T14:03:57.934Z,0.70
2022-12-31T14:06:34.217Z,0.83
2022-12-31T14:09:02.400Z,0.57
2022-12-31T14:11:47.340Z,0.57
2022-12-31T14:14:24.984Z,0.60
2022-12-31T14:16:58.856Z,2.40
2022-12-31T14:19:41.449Z,0.50
2022-12-31T14:22:15.788Z,0.30
2022-12-31T14:24:46.253Z,0.53
2022-12-31T14:27:18.920Z,0.50
2022-12-31T14:29:50.566Z,0.60
2022-12-31T14:33:01.174Z,0.30
2022-12-31T14:35:42.660Z,0.50
2022-12-31T14:38:21.196Z,0.40
2022-12-31T14:41:01.727Z,0.40
2022-12-31T14:43:38.281Z,0.40
2022-12-31T14:46:15.434Z,0.30
2022-12-31T14:48:56.860Z,2.60
2022-12-31T14:51:29.193Z,0.40
2022-12-31T14:53:58.863Z,0.80
2022-12-31T14:56:33.325Z,0.67
2022-12-31T14:59:02.499Z,0.43
2022-12-31T15:01:31.297Z,0.57
2022-12-31T15:04:00.537Z,0.60
2022-12-31T15:07:00.728Z,1.20
2022-12-31T15:09:47.653Z,0.80
2022-12-31T15:12:32.046Z,0.80
2022-12-31T15:15:38.224Z,1.10
2022-12-31T15:18:32.682Z,6.37
2022-12-31T15:21:21.671Z,6.30
2022-12-31T15:23:49.869Z,2.80
2022-12-31T15:26:24.137Z,27.40
2022-12-31T15:29:01.787Z,12.00
2022-12-31T15:31:30.459Z,6.73
2022-12-31T15:34:01.054Z,1.20
2022-12-31T15:36:32.152Z,1.10
2022-12-31T15:39:22.917Z,2.47
2022-12-31T15:42:35.671Z,9.30
2022-12-31T15:44:49.433Z,3.53
2022-12-31T15:47:27.051Z,2.87
2022-12-31T15:49:55.774Z,3.20
2022-12-31T15:52:28.493Z,12.83
2022-12-31T15:54:58.240Z,148.03
2022-12-31T15:57:33.186Z,91.87
2022-12-31T16:00:02.192Z,14.10
2022-12-31T16:02:32.934Z,14.87
2022-12-31T16:05:00.957Z,15.37
2022-12-31T16:07:30.411Z,20.27
2022-12-31T16:10:00.615Z,14.70
2022-12-31T16:12:35.188Z,7.73
2022-12-31T16:15:07.501Z,4.57
2022-12-31T16:17:36.899Z,5.90
2022-12-31T16:20:22.993Z,4.83
2022-12-31T16:22:56.184Z,31.73
2022-12-31T16:25:33.103Z,7.27
2022-12-31T16:28:03.626Z,3.90
2022-12-31T16:30:33.283Z,4.50
2022-12-31T16:33:06.580Z,4.53
2022-12-31T16:35:36.710Z,8.87
2022-12-31T16:38:13.712Z,9.57
2022-12-31T16:40:43.769Z,8.63
2022-12-31T16:43:27.448Z,10.50
2022-12-31T16:45:59.084Z,10.80
2022-12-31T16:48:27.590Z,11.37
2022-12-31T16:50:57.370Z,10.50
2022-12-31T16:53:30.477Z,10.27
2022-12-31T16:56:02.647Z,9.93
2022-12-31T16:58:33.789Z,7.27
2022-12-31T17:01:12.256Z,7.60
2022-12-31T17:03:44.301Z,8.40
2022-12-31T17:06:17.683Z,7.07
2022-12-31T17:08:51.039Z,6.83
2022-12-31T17:11:28.680Z,7.50
2022-12-31T17:13:59.519Z,9.47
2022-12-31T17:16:29.074Z,20.93
2022-12-31T17:18:57.090Z,14.50
2022-12-31T17:21:28.393Z,7.43
2022-12-31T17:24:02.989Z,4.90
2022-12-31T17:26:33.456Z,4.20
2022-12-31T17:29:03.901Z,4.10
2022-12-31T17:31:35.283Z,3.97
2022-12-31T17:34:24.050Z,6.23
2022-12-31T17:37:02.115Z,13.50
2022-12-31T17:39:44.758Z,12.33
2022-12-31T17:42:13.788Z,12.83
2022-12-31T17:44:44.370Z,11.57
2022-12-31T17:47:14.748Z,14.33
2022-12-31T17:49:45.943Z,12.63
2022-12-31T17:52:15.185Z,15.90
2022-12-31T17:54:44.444Z,21.63
2022-12-31T17:57:25.114Z,25.90
2022-12-31T17:59:53.087Z,22.60
2022-12-31T18:02:21.358Z,15.67
2022-12-31T18:04:49.352Z,14.57
2022-12-31T18:07:17.171Z,9.53
2022-12-31T18:09:46.404Z,6.80
2022-12-31T18:12:15.715Z,6.03
2022-12-31T18:14:46.645Z,5.67
2022-12-31T18:17:16.565Z,4.07
2022-12-31T18:22:32.251Z,3.33
2022-12-31T18:25:01.681Z,3.10
2022-12-31T18:27:30.611Z,4.13
2022-12-31T18:30:04.246Z,15.80
2022-12-31T18:32:33.977Z,42.57
2022-12-31T18:35:03.063Z,44.93
2022-12-31T18:37:32.540Z,43.60
2022-12-31T18:40:01.797Z,16.67
2022-12-31T18:42:29.801Z,191.27
2022-12-31T18:44:57.663Z,128.60
2022-12-31T18:47:25.459Z,84.57
2022-12-31T18:49:53.321Z,132.23
2022-12-31T18:52:25.030Z,95.43
2022-12-31T18:54:52.874Z,55.10
2022-12-31T18:57:22.148Z,460.77
2022-12-31T18:59:50.394Z,322.47
2022-12-31T19:02:21.196Z,164.17
2022-12-31T19:04:49.131Z,275.03
2022-12-31T19:07:16.982Z,68.47
2022-12-31T19:09:46.289Z,101.47
2022-12-31T19:12:15.731Z,30.87
2022-12-31T19:14:45.558Z,39.03
2022-12-31T19:17:13.403Z,31.97
2022-12-31T19:19:41.208Z,22.87
2022-12-31T19:22:14.815Z,24.03
2022-12-31T19:24:42.651Z,27.63
2022-12-31T19:27:11.213Z,33.80
2022-12-31T19:29:39.107Z,38.37
2022-12-31T19:32:08.603Z,31.97
2022-12-31T19:34:36.498Z,24.93
2022-12-31T19:37:04.371Z,22.63
2022-12-31T19:39:32.157Z,22.73
2022-12-31T19:41:59.984Z,21.17
2022-12-31T19:44:27.830Z,23.37
2022-12-31T19:46:55.695Z,29.43
2022-12-31T19:49:25.174Z,36.37
2022-12-31T19:51:53.064Z,63.07
2022-12-31T19:54:20.927Z,39.43
2022-12-31T19:56:48.736Z,52.87
2022-12-31T19:59:16.561Z,46.83
2022-12-31T20:01:44.472Z,42.97
2022-12-31T20:04:12.382Z,23.73
2022-12-31T20:06:41.637Z,22.23
2022-12-31T20:09:09.488Z,16.93
2022-12-31T20:11:37.324Z,15.27
2022-12-31T20:14:05.337Z,14.60
2022-12-31T20:16:34.124Z,12.33
2022-12-31T20:19:02.155Z,13.30
2022-12-31T20:21:30.646Z,13.07
2022-12-31T20:23:59.846Z,12.40
2022-12-31T20:26:27.684Z,13.43
2022-12-31T20:28:55.562Z,12.03
2022-12-31T20:31:25.505Z,13.40
2022-12-31T20:33:54.721Z,13.17
2022-12-31T20:36:23.552Z,14.50
2022-12-31T20:38:51.435Z,16.73
2022-12-31T20:41:23.046Z,24.17
2022-12-31T20:43:51.262Z,25.83
2022-12-31T20:46:21.481Z,25.73
2022-12-31T20:48:50.913Z,27.37
2022-12-31T20:51:19.299Z,28.93
2022-12-31T20:53:48.909Z,32.13
2022-12-31T20:56:17.552Z,32.53
2022-12-31T20:58:46.875Z,33.23
2022-12-31T21:01:16.494Z,82.13
2022-12-31T21:06:35.077Z,218.33
2022-12-31T21:09:05.177Z,207.63
2022-12-31T21:11:50.331Z,169.77
2022-12-31T21:14:20.168Z,121.80
2022-12-31T21:16:48.042Z,107.70
2022-12-31T21:19:15.925Z,88.63
2022-12-31T21:21:43.725Z,78.83
2022-12-31T21:24:11.762Z,76.10
2022-12-31T21:26:39.527Z,74.70
2022-12-31T21:29:07.444Z,71.27
2022-12-31T21:31:36.620Z,75.07
2022-12-31T21:34:04.497Z,100.23
2022-12-31T21:36:32.311Z,121.83
2022-12-31T21:39:00.328Z,166.03
2022-12-31T21:41:45.444Z,156.43
2022-12-31T21:44:13.272Z,166.27
2022-12-31T21:47:00.776Z,155.63
2022-12-31T21:49:30.330Z,142.87
2022-12-31T21:52:15.722Z,123.07
2022-12-31T21:55:00.881Z,110.83
2022-12-31T21:57:28.988Z,96.27
2022-12-31T22:00:41.176Z,95.03
2022-12-31T22:03:21.628Z,89.03
2022-12-31T22:05:52.541Z,86.53
2022-12-31T22:08:21.465Z,81.83
2022-12-31T22:10:52.787Z,73.83
2022-12-31T22:13:21.202Z,57.97
2022-12-31T22:15:54.645Z,51.80
2022-12-31T22:18:27.910Z,47.70
2022-12-31T22:21:02.863Z,41.93
2022-12-31T22:23:31.015Z,40.87
2022-12-31T22:25:58.815Z,42.47
2022-12-31T22:28:38.190Z,42.43
2022-12-31T22:31:07.720Z,40.27
2022-12-31T22:33:36.930Z,41.53
2022-12-31T22:36:07.484Z,42.10
2022-12-31T22:38:35.629Z,43.10
2022-12-31T22:41:05.218Z,44.63
2022-12-31T22:43:33.599Z,44.70
2022-12-31T22:46:07.074Z,43.90
2022-12-31T22:48:36.295Z,22.40
2022-12-31T22:51:04.369Z,28.43
2022-12-31T22:53:32.237Z,17.27
2022-12-31T22:56:00.112Z,15.93
2022-12-31T22:58:28.491Z,15.20
2022-12-31T23:00:56.515Z,15.33
2022-12-31T23:03:24.343Z,16.07
2022-12-31T23:05:53.895Z,59.73
2022-12-31T23:08:23.931Z,243.20
2022-12-31T23:11:01.641Z,435.50
2022-12-31T23:13:51.002Z,417.87
2022-12-31T23:16:37.012Z,461.23
2022-12-31T23:19:23.186Z,476.87
2022-12-31T23:22:10.753Z,526.10
2022-12-31T23:24:38.701Z,504.60
2022-12-31T23:27:07.950Z,493.77
2022-12-31T23:29:43.990Z,459.77
2022-12-31T23:32:28.071Z,461.40
2022-12-31T23:34:55.921Z,450.03
2022-12-31T23:37:25.252Z,459.57
2022-12-31T23:39:53.046Z,460.13
2022-12-31T23:42:20.845Z,448.07
2022-12-31T23:44:48.677Z,468.77
2022-12-31T23:47:16.482Z,484.20
2022-12-31T23:49:44.360Z,512.73
2022-12-31T23:52:12.161Z,508.80
2022-12-31T23:54:41.301Z,541.27
2022-12-31T23:57:09.224Z,555.40
2022-12-31T23:59:37.072Z,554.63
